createdAt,value
2022-12-28T00:02:01.790Z,15.10
2022-12-28T00:04:34.187Z,18.00
2022-12-28T00:07:06.567Z,22.50
2022-12-28T00:09:39.086Z,24.60
2022-12-28T00:12:11.708Z,16.40
2022-12-28T00:14:46.098Z,39.00
2022-12-28T00:17:18.894Z,22.50
2022-12-28T00:19:51.369Z,48.50
2022-12-28T00:22:23.928Z,40.90
2022-12-28T00:24:56.320Z,28.20
2022-12-28T00:27:28.669Z,29.60
2022-12-28T00:30:01.045Z,19.50
2022-12-28T00:32:34.418Z,31.50
2022-12-28T00:35:07.907Z,30.40
2022-12-28T00:37:40.386Z,24.70
2022-12-28T00:40:18.924Z,15.90
2022-12-28T00:42:54.604Z,29.90
2022-12-28T00:45:26.999Z,67.40
2022-12-28T00:47:59.401Z,17.90
2022-12-28T00:50:31.954Z,17.00
2022-12-28T00:53:04.582Z,11.90
2022-12-28T00:55:37.528Z,16.50
2022-12-28T00:58:11.714Z,18.80
2022-12-28T01:00:44.212Z,17.60
2022-12-28T01:03:16.653Z,15.40
2022-12-28T01:05:49.238Z,11.50
2022-12-28T01:08:21.739Z,16.70
2022-12-28T01:10:54.065Z,12.60
2022-12-28T01:13:26.486Z,27.20
2022-12-28T01:15:58.857Z,13.20
2022-12-28T01:18:31.717Z,36.00
2022-12-28T01:21:11.539Z,17.70
2022-12-28T01:23:44.321Z,31.60
2022-12-28T01:26:17.264Z,21.40
2022-12-28T01:28:50.783Z,29.20
2022-12-28T01:31:23.868Z,20.00
2022-12-28T01:33:56.561Z,23.10
2022-12-28T01:36:35.043Z,17.10
2022-12-28T01:39:08.222Z,21.30
2022-12-28T01:41:42.865Z,29.90
2022-12-28T01:44:51.342Z,22.30
2022-12-28T01:47:28.263Z,23.20
2022-12-28T01:50:08.904Z,12.80
2022-12-28T01:52:44.769Z,11.10
2022-12-28T01:55:20.079Z,12.10
2022-12-28T01:57:57.084Z,13.70
2022-12-28T02:00:30.354Z,24.60
2022-12-28T02:03:07.278Z,21.60
2022-12-28T02:05:42.793Z,12.40
2022-12-28T02:08:23.474Z,16.10
2022-12-28T02:10:57.314Z,17.70
2022-12-28T02:13:30.061Z,43.20
2022-12-28T02:16:02.958Z,19.40
2022-12-28T02:18:35.565Z,26.40
2022-12-28T02:21:25.131Z,25.70
2022-12-28T02:24:17.757Z,29.80
2022-12-28T02:27:01.988Z,23.70
2022-12-28T02:29:55.328Z,31.10
2022-12-28T02:32:41.695Z,17.80
2022-12-28T02:35:18.777Z,18.20
2022-12-28T02:37:54.923Z,25.60
2022-12-28T02:40:34.121Z,21.70
2022-12-28T02:43:07.011Z,12.30
2022-12-28T02:45:59.467Z,19.40
2022-12-28T02:48:59.756Z,20.80
2022-12-28T02:51:49.045Z,17.40
2022-12-28T02:55:18.867Z,19.00
2022-12-28T02:58:16.045Z,20.10
2022-12-28T03:01:01.376Z,18.30
2022-12-28T03:03:40.839Z,15.50
2022-12-28T03:06:39.602Z,21.60
2022-12-28T03:09:18.915Z,16.20
2022-12-28T03:12:01.987Z,18.40
2022-12-28T03:14:42.193Z,13.40
2022-12-28T03:17:33.212Z,14.70
2022-12-28T03:20:27.617Z,16.20
2022-12-28T03:23:23.263Z,16.30
2022-12-28T03:26:16.154Z,15.70
2022-12-28T03:29:09.255Z,19.70
2022-12-28T03:31:44.771Z,15.70
2022-12-28T03:34:18.836Z,19.10
2022-12-28T03:37:00.581Z,34.70
2022-12-28T03:39:46.416Z,30.40
2022-12-28T03:42:44.652Z,21.00
2022-12-28T03:45:45.384Z,34.10
2022-12-28T03:48:16.532Z,20.80
2022-12-28T03:50:51.667Z,18.30
2022-12-28T03:56:11.041Z,18.60
2022-12-28T03:58:43.917Z,18.10
2022-12-28T04:01:16.902Z,26.30
2022-12-28T04:03:49.789Z,20.00
2022-12-28T04:06:22.908Z,17.40
2022-12-28T04:08:55.277Z,17.20
2022-12-28T04:11:33.463Z,16.90
2022-12-28T04:14:10.896Z,36.90
2022-12-28T04:16:45.478Z,29.00
2022-12-28T04:19:20.589Z,48.60
2022-12-28T04:21:53.331Z,41.20
2022-12-28T04:24:25.950Z,22.60
2022-12-28T04:26:59.244Z,30.90
2022-12-28T04:29:31.646Z,27.40
2022-12-28T04:32:13.027Z,18.50
2022-12-28T04:34:48.741Z,15.70
2022-12-28T04:37:22.740Z,20.70
2022-12-28T04:39:57.296Z,17.30
2022-12-28T04:42:29.978Z,19.20
2022-12-28T04:45:02.319Z,16.80
2022-12-28T04:47:34.644Z,24.20
2022-12-28T04:50:07.728Z,21.60
2022-12-28T04:52:40.036Z,24.80
2022-12-28T04:55:32.903Z,40.70
2022-12-28T04:58:07.017Z,16.80
2022-12-28T05:00:39.506Z,16.30
2022-12-28T05:03:11.890Z,18.80
2022-12-28T05:05:45.249Z,18.60
2022-12-28T05:08:17.635Z,16.10
2022-12-28T05:10:49.960Z,18.50
2022-12-28T05:13:22.310Z,18.40
2022-12-28T05:15:54.836Z,29.50
2022-12-28T05:18:27.284Z,17.40
2022-12-28T05:21:04.033Z,107.80
2022-12-28T05:23:38.468Z,123.20
2022-12-28T05:26:14.807Z,25.10
2022-12-28T05:28:47.328Z,20.00
2022-12-28T05:31:23.422Z,27.40
2022-12-28T05:33:56.393Z,23.10
2022-12-28T05:36:30.099Z,23.20
2022-12-28T05:39:02.598Z,22.50
2022-12-28T05:41:35.012Z,18.20
2022-12-28T05:44:07.891Z,19.80
2022-12-28T05:46:40.307Z,24.00
2022-12-28T05:49:12.661Z,20.00
2022-12-28T05:51:45.027Z,23.60
2022-12-28T05:54:17.401Z,23.90
2022-12-28T05:56:53.183Z,29.10
2022-12-28T05:59:25.499Z,26.00
2022-12-28T06:01:58.026Z,22.20
2022-12-28T06:04:30.533Z,20.40
2022-12-28T06:07:03.038Z,22.50
2022-12-28T06:09:35.686Z,18.40
2022-12-28T06:12:10.134Z,25.00
2022-12-28T06:14:42.555Z,23.30
2022-12-28T06:17:14.884Z,18.40
2022-12-28T06:19:47.303Z,20.70
2022-12-28T06:22:19.649Z,17.50
2022-12-28T06:24:52.053Z,18.50
2022-12-28T06:27:24.420Z,25.50
2022-12-28T06:29:56.765Z,19.10
2022-12-28T06:32:29.152Z,18.40
2022-12-28T06:35:02.717Z,18.60
2022-12-28T06:37:35.090Z,30.70
2022-12-28T06:40:08.796Z,37.90
2022-12-28T06:42:41.140Z,29.70
2022-12-28T06:45:13.943Z,28.30
2022-12-28T06:47:46.279Z,34.80
2022-12-28T06:50:18.746Z,33.10
2022-12-28T06:52:51.119Z,46.80
2022-12-28T06:55:23.493Z,28.80
2022-12-28T06:57:56.455Z,27.60
2022-12-28T07:00:28.904Z,32.60
2022-12-28T07:03:01.569Z,47.00
2022-12-28T07:05:35.867Z,46.60
2022-12-28T07:08:12.485Z,22.70
2022-12-28T07:10:45.442Z,18.20
2022-12-28T07:13:18.559Z,20.30
2022-12-28T07:15:53.176Z,24.00
2022-12-28T07:18:25.561Z,39.30
2022-12-28T07:21:03.610Z,36.30
2022-12-28T07:23:36.057Z,26.50
2022-12-28T07:26:11.142Z,41.70
2022-12-28T07:28:45.637Z,36.40
2022-12-28T07:31:20.301Z,29.90
2022-12-28T07:33:55.673Z,26.10
2022-12-28T07:36:30.238Z,31.40
2022-12-28T07:39:03.247Z,25.00
2022-12-28T07:41:37.286Z,24.30
2022-12-28T07:44:11.079Z,28.90
2022-12-28T07:46:43.438Z,24.00
2022-12-28T07:49:15.790Z,24.30
2022-12-28T07:51:49.161Z,27.80
2022-12-28T07:54:21.606Z,26.20
2022-12-28T07:56:54.084Z,31.00
2022-12-28T07:59:30.939Z,31.70
2022-12-28T08:02:03.832Z,32.10
2022-12-28T08:04:36.258Z,30.40
2022-12-28T08:07:08.619Z,26.50
2022-12-28T08:09:40.914Z,24.90
2022-12-28T08:12:13.235Z,21.00
2022-12-28T08:14:45.629Z,24.60
2022-12-28T08:17:21.245Z,17.40
2022-12-28T08:19:55.597Z,45.30
2022-12-28T08:22:28.205Z,29.10
2022-12-28T08:25:00.555Z,23.00
2022-12-28T08:27:38.326Z,25.90
2022-12-28T08:30:14.937Z,23.20
2022-12-28T08:32:47.289Z,23.60
2022-12-28T08:35:19.774Z,21.50
2022-12-28T08:37:52.172Z,20.60
2022-12-28T08:40:29.933Z,19.20
2022-12-28T08:43:02.775Z,20.80
2022-12-28T08:45:35.128Z,20.80
2022-12-28T08:48:08.320Z,25.10
2022-12-28T08:50:40.645Z,26.90
2022-12-28T08:53:13.248Z,20.30
2022-12-28T08:55:45.670Z,18.10
2022-12-28T08:58:18.017Z,23.20
2022-12-28T09:00:50.336Z,21.60
2022-12-28T09:03:22.746Z,27.00
2022-12-28T09:05:55.162Z,25.50
2022-12-28T09:08:27.561Z,31.50
2022-12-28T09:11:03.900Z,34.50
2022-12-28T09:13:37.250Z,36.60
2022-12-28T09:16:12.078Z,32.50
2022-12-28T09:18:45.983Z,30.90
2022-12-28T09:21:21.099Z,44.20
2022-12-28T09:23:53.549Z,39.80
2022-12-28T09:26:28.283Z,28.90
2022-12-28T09:29:02.443Z,23.20
2022-12-28T09:31:37.416Z,43.40
2022-12-28T09:37:02.011Z,39.70
2022-12-28T09:39:34.458Z,21.80
2022-12-28T09:42:13.160Z,22.80
2022-12-28T09:44:56.106Z,21.40
2022-12-28T09:47:34.986Z,28.80
2022-12-28T09:50:30.381Z,18.70
2022-12-28T09:53:36.587Z,25.20
2022-12-28T09:56:24.371Z,26.50
2022-12-28T09:58:58.175Z,21.30
2022-12-28T10:01:30.790Z,20.60
2022-12-28T10:04:04.228Z,23.90
2022-12-28T10:06:38.248Z,24.40
2022-12-28T10:09:23.518Z,58.90
2022-12-28T10:11:56.579Z,23.60
2022-12-28T10:14:33.534Z,83.10
2022-12-28T10:17:07.839Z,117.60
2022-12-28T10:19:40.394Z,53.60
2022-12-28T10:22:17.311Z,55.40
2022-12-28T10:24:50.094Z,33.30
2022-12-28T10:27:25.027Z,35.30
2022-12-28T10:30:00.497Z,45.60
2022-12-28T10:32:51.841Z,44.90
2022-12-28T10:35:29.869Z,75.30
2022-12-28T10:38:07.613Z,31.10
2022-12-28T10:40:41.209Z,30.30
2022-12-28T10:43:21.300Z,40.40
2022-12-28T10:45:54.240Z,37.50
2022-12-28T10:48:30.583Z,28.40
2022-12-28T10:51:12.935Z,28.30
2022-12-28T10:53:48.249Z,20.10
2022-12-28T10:56:28.602Z,23.30
2022-12-28T10:59:24.565Z,24.20
2022-12-28T11:02:14.911Z,25.20
2022-12-28T11:05:00.669Z,22.60
2022-12-28T11:07:36.369Z,23.60
2022-12-28T11:10:28.994Z,28.70
2022-12-28T11:13:02.748Z,25.10
2022-12-28T11:15:35.994Z,23.50
2022-12-28T11:18:17.769Z,23.20
2022-12-28T11:20:52.564Z,23.30
2022-12-28T11:23:31.610Z,16.20
2022-12-28T11:26:04.380Z,20.10
2022-12-28T11:28:36.724Z,18.70
2022-12-28T11:31:15.738Z,20.40
2022-12-28T11:33:50.023Z,19.30
2022-12-28T11:36:25.336Z,18.40
2022-12-28T11:38:58.733Z,35.50
2022-12-28T11:42:19.383Z,25.00
2022-12-28T11:44:56.931Z,22.00
2022-12-28T11:47:34.244Z,13.50
2022-12-28T11:50:50.887Z,18.60
2022-12-28T11:53:45.527Z,25.10
2022-12-28T11:56:19.437Z,22.40
2022-12-28T11:59:05.085Z,24.10
2022-12-28T12:04:33.356Z,17.80
2022-12-28T12:07:45.896Z,21.50
2022-12-28T12:10:30.941Z,23.90
2022-12-28T12:13:20.538Z,17.90
2022-12-28T12:15:56.185Z,17.80
2022-12-28T12:18:31.198Z,30.80
2022-12-28T12:21:13.292Z,32.30
2022-12-28T12:23:53.193Z,34.40
2022-12-28T12:26:34.831Z,24.30
2022-12-28T12:29:16.213Z,23.80
2022-12-28T12:31:52.507Z,21.60
2022-12-28T12:34:29.750Z,29.80
2022-12-28T12:37:29.045Z,18.00
2022-12-28T12:40:25.614Z,19.50
2022-12-28T12:43:15.573Z,21.90
2022-12-28T12:45:57.454Z,22.80
2022-12-28T12:48:55.647Z,28.20
2022-12-28T12:51:33.529Z,17.60
2022-12-28T12:54:23.337Z,26.10
2022-12-28T12:56:59.801Z,24.90
2022-12-28T12:59:50.459Z,25.30
2022-12-28T13:02:58.280Z,26.00
2022-12-28T13:05:32.918Z,25.00
2022-12-28T13:08:06.743Z,19.40
2022-12-28T13:10:44.696Z,15.30
2022-12-28T13:13:25.592Z,14.90
2022-12-28T13:16:03.456Z,26.20
2022-12-28T13:18:45.019Z,22.90
2022-12-28T13:21:22.346Z,46.30
2022-12-28T13:23:55.496Z,22.60
2022-12-28T13:26:30.536Z,33.00
2022-12-28T13:29:04.847Z,26.70
2022-12-28T13:31:39.877Z,37.00
2022-12-28T13:34:20.776Z,21.30
2022-12-28T13:36:56.717Z,33.00
2022-12-28T13:39:33.053Z,26.70
2022-12-28T13:42:15.363Z,31.40
2022-12-28T13:44:50.981Z,29.90
2022-12-28T13:47:27.640Z,26.20
2022-12-28T13:50:04.711Z,22.90
2022-12-28T13:52:42.946Z,32.00
2022-12-28T13:55:18.752Z,24.40
2022-12-28T13:57:59.724Z,37.40
2022-12-28T14:00:35.223Z,42.40
2022-12-28T14:05:43.543Z,32.50
2022-12-28T14:08:17.025Z,47.30
2022-12-28T14:10:51.537Z,35.80
2022-12-28T14:13:25.190Z,35.60
2022-12-28T14:15:57.798Z,56.80
2022-12-28T14:18:31.563Z,71.70
2022-12-28T14:21:06.407Z,60.30
2022-12-28T14:23:40.560Z,83.80
2022-12-28T14:26:22.337Z,81.80
2022-12-28T14:28:56.361Z,43.90
2022-12-28T14:31:30.942Z,25.30
2022-12-28T14:34:05.895Z,25.10
2022-12-28T14:36:43.414Z,25.60
2022-12-28T14:39:27.621Z,21.70
2022-12-28T14:42:00.729Z,22.70
2022-12-28T14:44:34.766Z,19.00
2022-12-28T14:47:37.066Z,27.40
2022-12-28T14:50:22.418Z,24.60
2022-12-28T14:53:08.835Z,61.70
2022-12-28T14:55:55.196Z,45.10
2022-12-28T14:58:31.654Z,31.40
2022-12-28T15:01:07.329Z,29.50
2022-12-28T15:03:54.179Z,32.80
2022-12-28T15:06:30.498Z,48.80
2022-12-28T15:09:06.519Z,37.00
2022-12-28T15:11:39.062Z,46.20
2022-12-28T15:14:11.509Z,36.70
2022-12-28T15:16:43.963Z,43.60
2022-12-28T15:19:16.402Z,35.00
2022-12-28T15:21:48.982Z,30.90
2022-12-28T15:24:23.703Z,30.70
2022-12-28T15:26:57.596Z,30.60
2022-12-28T15:32:22.485Z,34.40
2022-12-28T15:34:54.867Z,30.00
2022-12-28T15:37:27.203Z,28.00
2022-12-28T15:39:59.707Z,31.80
2022-12-28T15:42:38.134Z,175.20
2022-12-28T15:45:13.478Z,55.40
2022-12-28T15:47:45.890Z,124.50
2022-12-28T15:50:18.561Z,57.10
2022-12-28T15:52:50.993Z,82.80
2022-12-28T15:55:23.343Z,296.30
2022-12-28T15:57:55.698Z,87.60
2022-12-28T16:00:28.087Z,311.00
2022-12-28T16:03:00.541Z,223.80
2022-12-28T16:05:33.684Z,40.60
2022-12-28T16:08:06.360Z,23.80
2022-12-28T16:10:38.681Z,33.90
2022-12-28T16:13:11.091Z,28.30
2022-12-28T16:15:43.457Z,47.20
2022-12-28T16:18:15.851Z,29.80
2022-12-28T16:20:49.068Z,40.30
2022-12-28T16:23:21.442Z,48.80
2022-12-28T16:25:54.044Z,50.70
2022-12-28T16:28:26.449Z,80.50
2022-12-28T16:30:59.639Z,66.90
2022-12-28T16:33:32.318Z,45.70
2022-12-28T16:36:12.047Z,48.20
2022-12-28T16:38:44.487Z,50.40
2022-12-28T16:41:18.146Z,36.80
2022-12-28T16:43:51.428Z,45.90
2022-12-28T16:46:23.867Z,64.00
2022-12-28T16:48:56.323Z,53.40
2022-12-28T16:51:28.841Z,57.30
2022-12-28T16:54:01.232Z,58.40
2022-12-28T16:56:33.633Z,50.30
2022-12-28T16:59:05.952Z,52.40
2022-12-28T17:01:38.551Z,49.70
2022-12-28T17:04:11.265Z,99.10
2022-12-28T17:06:46.591Z,243.30
2022-12-28T17:09:19.712Z,213.70
2022-12-28T17:11:52.705Z,151.80
2022-12-28T17:14:37.077Z,67.20
2022-12-28T17:17:10.242Z,236.50
2022-12-28T17:19:42.494Z,153.00
2022-12-28T17:22:14.976Z,179.60
2022-12-28T17:24:47.378Z,177.40
2022-12-28T17:27:20.051Z,248.20
2022-12-28T17:29:52.459Z,160.10
2022-12-28T17:32:24.856Z,147.10
2022-12-28T17:34:57.327Z,104.10
2022-12-28T17:37:29.821Z,64.70
2022-12-28T17:40:02.206Z,72.60
2022-12-28T17:42:34.573Z,51.80
2022-12-28T17:45:11.743Z,47.20
2022-12-28T17:47:44.617Z,36.30
2022-12-28T17:50:18.234Z,36.10
2022-12-28T17:52:50.525Z,33.80
2022-12-28T17:55:22.843Z,36.30
2022-12-28T17:57:55.469Z,41.00
2022-12-28T18:00:27.863Z,25.00
2022-12-28T18:03:00.790Z,27.20
2022-12-28T18:05:35.300Z,28.90
2022-12-28T18:08:08.057Z,24.40
2022-12-28T18:10:40.509Z,25.40
2022-12-28T18:13:13.371Z,31.90
2022-12-28T18:15:47.177Z,26.80
2022-12-28T18:18:20.419Z,23.80
2022-12-28T18:21:00.786Z,42.50
2022-12-28T18:23:34.431Z,75.20
2022-12-28T18:26:08.800Z,32.70
2022-12-28T18:28:41.311Z,33.60
2022-12-28T18:31:13.947Z,54.30
2022-12-28T18:54:30.938Z,29.70
2022-12-28T18:57:03.310Z,32.40
2022-12-28T18:59:35.767Z,18.70
2022-12-28T19:02:15.938Z,19.70
2022-12-28T19:04:52.990Z,20.90
2022-12-28T19:07:25.683Z,24.30
2022-12-28T19:10:14.061Z,28.00
2022-12-28T19:12:47.041Z,27.50
2022-12-28T19:15:19.826Z,36.40
2022-12-28T19:17:52.198Z,91.70
2022-12-28T19:20:24.828Z,44.60
2022-12-28T19:22:57.225Z,22.10
2022-12-28T19:25:29.625Z,24.30
2022-12-28T19:28:02.051Z,29.80
2022-12-28T19:30:34.446Z,26.70
2022-12-28T19:33:06.952Z,29.80
2022-12-28T19:35:39.320Z,21.20
2022-12-28T19:38:11.618Z,23.30
2022-12-28T19:40:43.941Z,22.30
2022-12-28T19:43:16.212Z,18.80
2022-12-28T19:45:48.671Z,21.30
2022-12-28T19:48:21.034Z,32.40
2022-12-28T19:50:53.332Z,33.70
2022-12-28T19:53:25.681Z,31.10
2022-12-28T19:56:04.612Z,52.90
2022-12-28T19:58:39.183Z,29.30
2022-12-28T20:01:13.502Z,17.20
2022-12-28T20:03:46.858Z,18.80
2022-12-28T20:06:22.346Z,32.30
2022-12-28T20:08:56.529Z,31.20
2022-12-28T20:11:29.706Z,23.70
2022-12-28T20:14:03.660Z,21.60
2022-12-28T20:16:37.414Z,23.80
2022-12-28T20:19:11.043Z,24.10
2022-12-28T20:21:43.565Z,17.90
2022-12-28T20:24:17.586Z,18.40
2022-12-28T20:26:50.096Z,19.60
2022-12-28T20:29:22.372Z,14.80
2022-12-28T20:31:55.166Z,15.90
2022-12-28T20:34:27.702Z,24.80
2022-12-28T20:37:00.186Z,22.70
2022-12-28T20:39:32.583Z,30.00
2022-12-28T20:42:22.881Z,17.60
2022-12-28T20:44:57.658Z,17.30
2022-12-28T20:47:30.079Z,17.30
2022-12-28T20:50:04.045Z,12.80
2022-12-28T20:52:36.362Z,17.20
2022-12-28T20:55:09.651Z,22.70
2022-12-28T20:57:41.981Z,55.70
2022-12-28T21:00:16.343Z,45.60
2022-12-28T21:02:49.309Z,19.80
2022-12-28T21:05:21.757Z,19.10
2022-12-28T21:07:54.229Z,18.70
2022-12-28T21:10:26.770Z,33.80
2022-12-28T21:12:59.425Z,31.40
2022-12-28T21:15:31.876Z,40.50
2022-12-28T21:18:04.535Z,27.00
2022-12-28T21:20:39.192Z,23.00
2022-12-28T21:23:11.855Z,26.00
2022-12-28T21:25:44.248Z,30.60
2022-12-28T21:28:16.763Z,23.20
2022-12-28T21:30:55.938Z,24.00
2022-12-28T21:33:28.386Z,30.30
2022-12-28T21:36:02.811Z,28.70
2022-12-28T21:38:37.896Z,23.90
2022-12-28T21:43:42.745Z,18.10
2022-12-28T21:46:16.084Z,21.90
2022-12-28T21:48:48.565Z,16.10
2022-12-28T21:51:35.331Z,24.20
2022-12-28T21:54:11.384Z,24.90
2022-12-28T21:56:45.469Z,22.60
2022-12-28T21:59:17.846Z,22.70
2022-12-28T22:02:07.903Z,16.30
2022-12-28T22:05:02.437Z,21.80
2022-12-28T22:07:37.305Z,23.10
2022-12-28T22:10:28.119Z,24.30
2022-12-28T22:13:00.537Z,20.20
2022-12-28T22:15:50.863Z,16.40
2022-12-28T22:18:52.656Z,20.60
2022-12-28T22:21:17.437Z,26.10
2022-12-28T22:23:49.862Z,25.10
2022-12-28T22:26:22.340Z,21.90
2022-12-28T22:28:54.613Z,28.10
2022-12-28T22:31:26.940Z,19.60
2022-12-28T22:34:03.371Z,22.50
2022-12-28T22:36:39.075Z,16.70
2022-12-28T22:39:11.342Z,16.40
2022-12-28T22:41:43.690Z,18.60
2022-12-28T22:44:16.031Z,24.70
2022-12-28T22:46:48.463Z,18.00
2022-12-28T22:49:21.085Z,16.00
2022-12-28T22:51:53.444Z,18.90
2022-12-28T22:54:26.028Z,19.80
2022-12-28T22:56:58.327Z,16.20
2022-12-28T22:59:30.787Z,21.10
2022-12-28T23:02:03.254Z,16.10
2022-12-28T23:04:35.923Z,18.50
2022-12-28T23:07:08.367Z,15.00
2022-12-28T23:09:40.740Z,20.10
2022-12-28T23:12:13.067Z,14.00
2022-12-28T23:15:03.079Z,16.90
2022-12-28T23:17:35.453Z,14.10
2022-12-28T23:20:26.611Z,15.30
2022-12-28T23:23:17.008Z,12.80
2022-12-28T23:26:07.456Z,20.30
2022-12-28T23:28:39.756Z,14.20
2022-12-28T23:31:11.990Z,12.00
2022-12-28T23:33:44.342Z,11.60
2022-12-28T23:36:16.672Z,15.60
2022-12-28T23:38:50.686Z,12.90
2022-12-28T23:41:40.637Z,14.20
2022-12-28T23:44:12.933Z,16.80
2022-12-28T23:46:45.646Z,14.60
2022-12-28T23:49:18.933Z,13.90
2022-12-28T23:51:51.558Z,15.80
2022-12-28T23:54:24.012Z,15.40
2022-12-28T23:56:56.358Z,11.50
2022-12-28T23:59:28.712Z,12.00
